Time;durP1;ratioP1;P1;durP2;ratioP2;P2;SDS_P1;SDS_P2;PMS_P1;PMS_P2;Temp;Humidity;BMP_temperature;BMP_pressure;BME280_temperature;BME280_humidity;BME280_pressure;Samples;Min_cycle;Max_cycle;Signal;HPM_P1;HPM_P2
2022/07/11 00:01:46;;;;;;;5.72;2.90;;;15.70;99.90;;;;;;4984123;28;20201;-64
2022/07/11 00:04:14;;;;;;;4.65;2.33;;;16.00;99.90;;;;;;5015408;28;20941;-65
2022/07/11 00:06:41;;;;;;;4.75;2.17;;;15.60;99.90;;;;;;5011759;28;20209;-64
2022/07/11 00:09:08;;;;;;;6.00;2.45;;;15.70;99.90;;;;;;5015075;28;20198;-65
2022/07/11 00:11:35;;;;;;;2.85;2.15;;;15.80;99.90;;;;;;5009705;28;20202;-65
2022/07/11 00:14:02;;;;;;;6.03;2.50;;;15.60;99.90;;;;;;5026134;28;20205;-64
2022/07/11 00:16:28;;;;;;;4.82;2.05;;;15.50;99.90;;;;;;4979131;28;21510;-64
2022/07/11 00:18:55;;;;;;;4.03;2.28;;;15.70;99.90;;;;;;5009182;28;20206;-64
2022/07/11 00:21:23;;;;;;;3.60;2.30;;;15.70;99.90;;;;;;5018905;28;20244;-66
2022/07/11 00:23:50;;;;;;;5.35;2.28;;;15.50;99.90;;;;;;4997498;28;20206;-65
2022/07/11 00:26:17;;;;;;;5.75;2.38;;;15.70;99.90;;;;;;5010411;28;20662;-64
2022/07/11 00:28:44;;;;;;;4.15;2.28;;;15.60;99.90;;;;;;5021303;28;20194;-65
2022/07/11 00:31:10;;;;;;;7.88;2.50;;;16.50;99.90;;;;;;4983717;28;20692;-64
2022/07/11 00:33:38;;;;;;;6.78;2.20;;;15.60;99.90;;;;;;5010933;28;20210;-64
2022/07/11 00:36:05;;;;;;;5.55;2.33;;;15.70;99.90;;;;;;5020472;28;20696;-64
2022/07/11 00:38:34;;;;;;;4.70;2.85;;;15.70;99.90;;;;;;5005121;28;20206;-65
2022/07/11 00:41:01;;;;;;;9.65;2.65;;;;;;;;;;5005981;28;22950;-64
2022/07/11 00:43:31;;;;;;;7.07;2.40;;;15.70;99.90;;;;;;5015418;28;20201;-64
2022/07/11 00:45:58;;;;;;;6.65;2.22;;;15.70;99.90;;;;;;4990381;28;20710;-65
2022/07/11 00:48:25;;;;;;;6.47;2.70;;;15.70;99.90;;;;;;5012104;28;20202;-64
2022/07/11 00:50:52;;;;;;;3.85;2.25;;;15.70;99.90;;;;;;5014996;28;20198;-65
2022/07/11 00:53:20;;;;;;;4.20;2.40;;;15.70;99.90;;;;;;5012381;28;20555;-65
2022/07/11 00:55:49;;;;;;;5.25;2.50;;;15.70;99.90;;;;;;5005403;28;20202;-65
2022/07/11 00:58:16;;;;;;;4.60;2.30;;;15.70;99.90;;;;;;5004722;28;20320;-65
2022/07/11 01:00:43;;;;;;;7.00;2.80;;;15.70;99.90;;;;;;5013812;28;20610;-65
2022/07/11 01:03:09;;;;;;;4.65;2.22;;;15.70;99.90;;;;;;4989360;28;20210;-65
2022/07/11 01:05:37;;;;;;;2.80;1.98;;;17.00;99.90;;;;;;5002074;28;20205;-64
2022/07/11 01:08:04;;;;;;;3.47;2.65;;;15.70;99.90;;;;;;5026442;28;20715;-65
2022/07/11 01:10:32;;;;;;;3.40;2.60;;;15.70;99.90;;;;;;4985555;28;21224;-65
2022/07/11 01:13:00;;;;;;;4.53;2.60;;;15.60;99.90;;;;;;5009579;28;20225;-65
2022/07/11 01:15:27;;;;;;;4.22;2.25;;;15.50;99.90;;;;;;5014642;28;20198;-64
2022/07/11 01:17:53;;;;;;;3.17;2.30;;;15.70;99.90;;;;;;4998358;28;20228;-65
2022/07/11 01:20:22;;;;;;;5.60;2.30;;;15.60;99.90;;;;;;5005200;28;20202;-65
2022/07/11 01:22:53;;;;;;;3.28;2.22;;;15.70;99.90;;;;;;5018424;28;20202;-65
2022/07/11 01:25:30;;;;;;;3.47;2.05;;;15.70;99.90;;;;;;4999083;28;20916;-65
2022/07/11 01:27:57;;;;;;;2.55;2.08;;;15.50;99.90;;;;;;5010399;28;20202;-65
2022/07/11 01:30:25;;;;;;;2.40;2.13;;;15.50;99.90;;;;;;5015660;28;20209;-65
2022/07/11 01:32:52;;;;;;;6.18;2.22;;;15.60;99.90;;;;;;5021621;28;20206;-65
2022/07/11 01:35:19;;;;;;;5.80;2.42;;;16.50;99.90;;;;;;4981399;28;20223;-65
2022/07/11 01:37:46;;;;;;;4.53;2.35;;;15.60;99.90;;;;;;5021528;28;20221;-65
2022/07/11 01:40:13;;;;;;;2.67;1.80;;;15.60;99.90;;;;;;5016700;28;20205;-64
2022/07/11 01:42:41;;;;;;;5.60;2.15;;;15.60;99.90;;;;;;5003219;28;20233;-65
2022/07/11 01:45:10;;;;;;;3.85;2.25;;;15.70;99.90;;;;;;5012199;28;20205;-65
2022/07/11 01:47:36;;;;;;;6.90;2.67;;;15.40;99.90;;;;;;5021743;28;21090;-65
2022/07/11 01:50:04;;;;;;;3.65;2.22;;;15.60;99.90;;;;;;4995896;28;20970;-65
2022/07/11 01:52:30;;;;;;;2.88;1.77;;;15.60;99.90;;;;;;5010021;28;20209;-65
2022/07/11 01:54:57;;;;;;;2.63;2.03;;;15.60;99.90;;;;;;5020765;28;20194;-64
2022/07/11 01:57:24;;;;;;;5.75;2.33;;;16.00;99.90;;;;;;5008861;28;20241;-64
2022/07/11 01:59:52;;;;;;;3.92;2.35;;;15.60;99.90;;;;;;5015558;28;20969;-65
2022/07/11 02:02:19;;;;;;;3.15;2.05;;;15.30;99.90;;;;;;5019846;28;20193;-64
2022/07/11 02:04:46;;;;;;;3.70;2.00;;;15.30;99.90;;;;;;4996580;28;20746;-65
2022/07/11 02:07:14;;;;;;;2.17;1.98;;;15.60;99.90;;;;;;5012912;28;20248;-65
2022/07/11 02:09:41;;;;;;;3.83;2.50;;;16.00;99.90;;;;;;5010204;28;20208;-65
2022/07/11 02:12:09;;;;;;;4.88;2.22;;;15.60;99.90;;;;;;5009372;28;20673;-65
2022/07/11 02:14:35;;;;;;;5.55;2.50;;;15.50;99.90;;;;;;5012070;28;20704;-65
2022/07/11 02:17:04;;;;;;;4.60;1.98;;;15.60;99.90;;;;;;5023163;28;20233;-65
2022/07/11 02:19:31;;;;;;;2.78;2.10;;;15.60;99.90;;;;;;4992287;28;20218;-65
2022/07/11 02:22:05;;;;;;;7.25;2.70;;;15.50;99.90;;;;;;5010203;28;20293;-65
2022/07/11 02:24:32;;;;;;;2.88;2.17;;;15.50;99.90;;;;;;5019558;28;20219;-65
2022/07/11 02:26:59;;;;;;;6.32;1.90;;;15.50;99.90;;;;;;5020590;28;20208;-64
2022/07/11 02:29:26;;;;;;;4.38;2.50;;;16.60;99.90;;;;;;5010880;28;21104;-65
2022/07/11 02:31:52;;;;;;;4.07;2.60;;;15.60;99.90;;;;;;5014183;28;20198;-64
2022/07/11 02:34:20;;;;;;;5.00;3.05;;;15.80;99.90;;;;;;5021561;28;20201;-65
2022/07/11 02:36:47;;;;;;;3.60;2.38;;;15.70;99.90;;;;;;4982730;28;20595;-64
2022/07/11 02:39:14;;;;;;;3.38;2.72;;;15.70;99.90;;;;;;5021330;28;20194;-65
2022/07/11 02:41:41;;;;;;;3.20;2.50;;;15.60;99.90;;;;;;5025168;28;20201;-64
2022/07/11 02:44:08;;;;;;;4.95;2.85;;;15.80;99.90;;;;;;5013954;28;20209;-65
2022/07/11 02:46:34;;;;;;;5.57;2.63;;;15.70;99.90;;;;;;5005233;28;20296;-65
2022/07/11 02:49:01;;;;;;;2.90;2.60;;;15.70;99.90;;;;;;5021802;28;20198;-64
2022/07/11 02:51:30;;;;;;;3.10;2.22;;;15.80;99.90;;;;;;4991911;28;20922;-65
2022/07/11 02:53:57;;;;;;;3.45;2.10;;;15.70;99.90;;;;;;5007179;28;20210;-64
2022/07/11 02:56:24;;;;;;;3.97;2.42;;;;;;;;;;5017021;28;20225;-65
2022/07/11 02:58:51;;;;;;;3.20;2.35;;;15.80;99.90;;;;;;5012685;28;20229;-66
2022/07/11 03:01:19;;;;;;;4.55;2.45;;;15.70;99.90;;;;;;5012994;28;20220;-65
2022/07/11 03:03:46;;;;;;;2.58;2.30;;;15.80;99.90;;;;;;5016909;28;20681;-65
2022/07/11 03:06:13;;;;;;;4.38;2.42;;;15.80;99.90;;;;;;5011145;28;20206;-65
2022/07/11 03:08:42;;;;;;;3.60;2.55;;;16.00;99.90;;;;;;5003066;28;20292;-65
2022/07/11 03:11:08;;;;;;;3.63;2.47;;;15.80;99.90;;;;;;5022109;28;20229;-65
2022/07/11 03:13:36;;;;;;;4.80;2.70;;;16.00;99.90;;;;;;5003923;28;21738;-65
2022/07/11 03:16:03;;;;;;;3.28;2.33;;;15.90;99.90;;;;;;5024026;28;20199;-65
2022/07/11 03:18:30;;;;;;;6.90;2.67;;;15.90;99.90;;;;;;5008787;28;20232;-65
2022/07/11 03:20:56;;;;;;;4.72;3.15;;;15.90;99.90;;;;;;5021151;28;20209;-66
2022/07/11 03:23:23;;;;;;;5.97;2.28;;;15.90;99.90;;;;;;4981917;28;20202;-66
2022/07/11 03:25:51;;;;;;;7.82;2.92;;;15.80;99.90;;;;;;5006985;28;20213;-65
2022/07/11 03:28:18;;;;;;;4.50;3.03;;;16.10;99.90;;;;;;5023066;28;20205;-65
2022/07/11 03:30:45;;;;;;;13.32;3.10;;;16.00;99.90;;;;;;5002225;28;20202;-65
2022/07/11 03:33:12;;;;;;;2.40;2.20;;;15.90;99.90;;;;;;5011176;28;20206;-65
2022/07/11 03:35:41;;;;;;;4.35;2.63;;;16.00;99.90;;;;;;5014657;28;20201;-65
2022/07/11 03:38:08;;;;;;;4.10;2.90;;;16.00;99.90;;;;;;4996604;28;20232;-65
2022/07/11 03:40:35;;;;;;;8.40;2.72;;;16.00;99.90;;;;;;4997389;28;20684;-65
2022/07/11 03:43:04;;;;;;;4.85;2.55;;;16.00;99.90;;;;;;5018136;28;20209;-65
2022/07/11 03:45:30;;;;;;;4.15;2.30;;;16.00;99.90;;;;;;5006004;28;20221;-65
2022/07/11 03:47:57;;;;;;;4.32;1.80;;;15.90;99.90;;;;;;4999011;28;20670;-65
2022/07/11 03:50:24;;;;;;;2.35;1.92;;;15.90;99.90;;;;;;5015113;28;20222;-65
2022/07/11 03:52:52;;;;;;;4.43;1.88;;;15.90;99.90;;;;;;4990500;28;20206;-65
2022/07/11 03:55:19;;;;;;;4.85;1.55;;;16.00;99.90;;;;;;5001140;28;20903;-63
2022/07/11 03:57:46;;;;;;;4.88;2.05;;;15.80;99.90;;;;;;5024605;28;20236;-62
2022/07/11 04:00:15;;;;;;;2.13;1.75;;;15.50;99.90;;;;;;5005767;28;20201;-63
2022/07/11 04:02:42;;;;;;;4.82;2.00;;;15.80;99.90;;;;;;5021889;28;20201;-64
2022/07/11 04:05:09;;;;;;;3.70;2.03;;;14.40;99.90;;;;;;4994537;28;20209;-64
2022/07/11 04:07:36;;;;;;;2.60;2.00;;;15.90;99.90;;;;;;5024410;28;20709;-63
2022/07/11 04:10:03;;;;;;;2.03;1.83;;;16.10;99.90;;;;;;4982004;28;20302;-64
2022/07/11 04:12:30;;;;;;;4.88;1.88;;;15.90;99.90;;;;;;5008747;28;20688;-63
2022/07/11 04:14:57;;;;;;;3.78;2.00;;;16.00;99.90;;;;;;5016528;28;20206;-64
2022/07/11 04:17:26;;;;;;;6.28;1.88;;;16.20;99.90;;;;;;5011698;28;20197;-63
2022/07/11 04:19:53;;;;;;;4.53;2.00;;;15.90;99.90;;;;;;5004966;28;20213;-64
2022/07/11 04:22:20;;;;;;;2.35;2.15;;;15.80;99.90;;;;;;5009962;28;20364;-64
2022/07/11 04:24:47;;;;;;;2.95;1.95;;;15.90;99.90;;;;;;4984460;28;20225;-63
2022/07/11 04:27:13;;;;;;;2.17;1.98;;;15.90;99.90;;;;;;4990183;28;20357;-64
2022/07/11 04:29:40;;;;;;;2.30;1.95;;;15.90;99.90;;;;;;5012349;28;20207;-64
2022/07/11 04:32:08;;;;;;;2.78;1.88;;;15.90;99.90;;;;;;4999504;28;20225;-65
2022/07/11 04:34:36;;;;;;;4.70;2.08;;;15.90;99.90;;;;;;5008601;28;21076;-64
2022/07/11 04:37:04;;;;;;;3.25;1.95;;;16.10;99.90;;;;;;5020108;28;20201;-64
2022/07/11 04:39:32;;;;;;;2.95;1.65;;;16.20;99.90;;;;;;4998119;28;20239;-64
2022/07/11 04:41:59;;;;;;;2.80;1.70;;;16.10;99.90;;;;;;4994493;28;20216;-64
2022/07/11 04:44:26;;;;;;;3.47;2.10;;;16.10;99.90;;;;;;5021052;28;20202;-64
2022/07/11 04:46:53;;;;;;;2.78;2.20;;;16.20;99.90;;;;;;5000628;28;20226;-64
2022/07/11 04:49:20;;;;;;;2.65;2.13;;;16.30;99.90;;;;;;5011402;28;20229;-63
2022/07/11 04:51:48;;;;;;;4.00;2.13;;;16.20;99.90;;;;;;4985468;28;20253;-64
2022/07/11 04:54:15;;;;;;;3.20;2.35;;;16.40;99.90;;;;;;4983512;28;20222;-64
2022/07/11 04:56:42;;;;;;;3.30;2.28;;;16.00;99.90;;;;;;5009221;28;20649;-64
2022/07/11 04:59:09;;;;;;;2.78;2.03;;;16.20;99.90;;;;;;4995827;28;21630;-64
2022/07/11 05:01:36;;;;;;;4.03;2.35;;;16.20;99.90;;;;;;5015240;28;20212;-64
2022/07/11 05:04:04;;;;;;;5.25;2.22;;;;;;;;;;5002264;28;20628;-64
2022/07/11 05:06:30;;;;;;;3.15;2.10;;;16.40;99.90;;;;;;4984918;28;20237;-63
2022/07/11 05:08:59;;;;;;;3.63;2.30;;;16.30;99.90;;;;;;4983316;28;20227;-65
2022/07/11 05:11:26;;;;;;;5.20;2.25;;;16.40;99.90;;;;;;5013823;28;20221;-64
2022/07/11 05:13:53;;;;;;;3.47;1.83;;;16.50;99.90;;;;;;4984478;28;20877;-64
2022/07/11 05:16:20;;;;;;;2.72;2.05;;;16.30;99.90;;;;;;5012927;28;20218;-64
2022/07/11 05:18:47;;;;;;;2.15;1.95;;;16.50;99.90;;;;;;5003789;28;20256;-63
2022/07/11 05:21:14;;;;;;;5.45;2.25;;;14.90;99.90;;;;;;4998002;28;20229;-64
2022/07/11 05:23:41;;;;;;;3.85;2.22;;;16.60;99.90;;;;;;5004116;28;20221;-64
2022/07/11 05:26:10;;;;;;;3.47;2.15;;;18.70;99.90;;;;;;4991105;28;20213;-64
2022/07/11 05:28:36;;;;;;;2.10;1.85;;;16.50;99.90;;;;;;4996526;28;21048;-64
2022/07/11 05:31:03;;;;;;;3.17;2.35;;;16.50;99.90;;;;;;5011412;28;20664;-64
2022/07/11 05:33:30;;;;;;;2.33;1.90;;;16.70;99.90;;;;;;5000070;28;20632;-64
2022/07/11 05:35:57;;;;;;;2.08;1.88;;;17.30;99.90;;;;;;5013557;28;20194;-65
2022/07/11 05:38:24;;;;;;;3.53;1.88;;;16.80;99.90;;;;;;5004614;28;20229;-64
2022/07/11 05:40:50;;;;;;;1.88;1.52;;;16.60;99.90;;;;;;4990985;28;20209;-64
2022/07/11 05:43:19;;;;;;;1.60;1.50;;;16.80;99.90;;;;;;5007433;28;20700;-65
2022/07/11 05:45:46;;;;;;;1.73;1.30;;;16.70;99.90;;;;;;5007579;28;20199;-65
2022/07/11 05:48:13;;;;;;;1.48;1.38;;;16.70;99.90;;;;;;5006845;28;20230;-64
2022/07/11 05:50:40;;;;;;;1.80;1.33;;;16.80;99.90;;;;;;5004655;28;20695;-65
2022/07/11 05:53:08;;;;;;;0.93;0.93;;;;;;;;;;5003989;28;20211;-64
2022/07/11 05:55:35;;;;;;;2.25;1.20;;;17.10;99.90;;;;;;4990721;28;20305;-66
2022/07/11 05:58:02;;;;;;;2.03;1.08;;;18.30;99.90;;;;;;5001858;28;20232;-65
2022/07/11 06:00:31;;;;;;;1.30;0.80;;;16.50;99.90;;;;;;5002785;28;20205;-65
2022/07/11 06:02:57;;;;;;;3.10;1.02;;;16.60;99.90;;;;;;5011699;28;20214;-64
2022/07/11 06:05:24;;;;;;;1.20;1.10;;;16.60;99.90;;;;;;5002428;28;20216;-65
2022/07/11 06:10:38;;;;;;;1.00;1.00;;;;;;;;;;4995965;28;20219;-66
2022/07/11 06:13:05;;;;;;;1.48;1.10;;;16.40;99.90;;;;;;4984436;28;20251;-65
2022/07/11 06:15:33;;;;;;;1.38;1.20;;;16.60;99.90;;;;;;5016488;28;20221;-65
2022/07/11 06:18:00;;;;;;;1.38;0.90;;;17.10;99.90;;;;;;4996233;28;20700;-65
2022/07/11 06:20:27;;;;;;;2.47;1.33;;;16.50;99.90;;;;;;5002726;28;20233;-65
2022/07/11 06:22:54;;;;;;;1.65;1.40;;;;;;;;;;4999878;28;20221;-65
2022/07/11 06:25:22;;;;;;;1.75;1.33;;;16.60;99.90;;;;;;4991995;28;20313;-65
2022/07/11 06:27:49;;;;;;;2.70;1.15;;;16.60;99.90;;;;;;5000223;28;20210;-65
2022/07/11 06:30:16;;;;;;;1.20;1.10;;;16.60;99.90;;;;;;5021882;28;20198;-66
2022/07/11 06:32:44;;;;;;;1.13;1.02;;;16.60;99.90;;;;;;5011712;28;20202;-66
2022/07/11 06:35:10;;;;;;;1.13;0.98;;;16.50;99.90;;;;;;5016845;28;20206;-65
2022/07/11 06:37:37;;;;;;;2.35;1.00;;;16.90;99.90;;;;;;5022371;28;20682;-65
2022/07/11 06:40:09;;;;;;;1.02;0.82;;;16.70;99.90;;;;;;5011189;28;20826;-65
2022/07/11 06:42:36;;;;;;;1.55;1.05;;;15.90;99.90;;;;;;4989520;28;20641;-65
2022/07/11 06:45:03;;;;;;;0.98;0.88;;;16.60;99.90;;;;;;5022142;28;20398;-66
2022/07/11 06:47:30;;;;;;;3.30;0.55;;;16.70;99.90;;;;;;5007870;28;20206;-65
2022/07/11 06:49:58;;;;;;;1.10;0.82;;;16.50;99.90;;;;;;5002641;28;20341;-65
2022/07/11 06:52:25;;;;;;;1.48;0.60;;;16.50;99.90;;;;;;5007877;28;20599;-65
2022/07/11 06:54:52;;;;;;;0.40;0.40;;;16.50;99.90;;;;;;5024111;28;20209;-64
2022/07/11 06:57:19;;;;;;;0.40;0.40;;;16.50;99.90;;;;;;5013561;28;20296;-64
2022/07/11 06:59:45;;;;;;;0.82;0.65;;;16.60;99.90;;;;;;4998033;28;20229;-64
2022/07/11 07:02:12;;;;;;;0.75;0.70;;;19.20;99.90;;;;;;5006942;28;20221;-65
2022/07/11 07:04:39;;;;;;;0.63;0.63;;;16.50;99.90;;;;;;5005732;28;20588;-65
2022/07/11 07:07:08;;;;;;;0.60;0.60;;;16.70;99.90;;;;;;5011258;28;20232;-65
2022/07/11 07:09:35;;;;;;;0.88;0.65;;;16.60;99.90;;;;;;5015871;28;20247;-64
2022/07/11 07:12:02;;;;;;;2.75;0.73;;;16.80;99.90;;;;;;5010774;28;20368;-65
2022/07/11 07:14:28;;;;;;;0.50;0.50;;;16.70;99.90;;;;;;4982135;28;20196;-65
2022/07/11 07:16:55;;;;;;;0.85;0.77;;;16.90;99.90;;;;;;5012984;28;20205;-64
2022/07/11 07:19:22;;;;;;;0.80;0.60;;;18.70;99.90;;;;;;4986880;28;20260;-64
2022/07/11 07:21:49;;;;;;;1.30;0.70;;;17.10;99.90;;;;;;4999423;28;20551;-65
2022/07/11 07:24:17;;;;;;;1.15;0.57;;;16.90;99.90;;;;;;5009046;28;20516;-65
2022/07/11 07:26:44;;;;;;;2.63;0.80;;;16.90;99.90;;;;;;5002191;28;20937;-65
2022/07/11 07:29:11;;;;;;;0.70;0.70;;;16.80;99.90;;;;;;4982521;28;20707;-65
2022/07/11 07:31:37;;;;;;;1.95;0.85;;;16.80;99.90;;;;;;5006928;28;20286;-66
2022/07/11 07:34:04;;;;;;;1.08;0.88;;;17.00;99.90;;;;;;5001407;28;20581;-66
2022/07/11 07:36:31;;;;;;;1.08;0.85;;;16.90;99.90;;;;;;5029627;28;20742;-66
2022/07/11 07:38:58;;;;;;;1.10;0.90;;;16.90;99.90;;;;;;5007271;28;20225;-65
2022/07/11 07:41:27;;;;;;;2.17;0.80;;;18.60;99.90;;;;;;5024800;28;20205;-65
2022/07/11 07:43:54;;;;;;;0.75;0.75;;;17.10;99.90;;;;;;4990106;28;20200;-66
2022/07/11 07:46:21;;;;;;;1.17;0.52;;;17.00;99.90;;;;;;5016759;28;21366;-65
2022/07/11 07:48:48;;;;;;;0.82;0.65;;;17.00;99.90;;;;;;5020696;28;20300;-65
2022/07/11 07:51:15;;;;;;;2.15;0.75;;;;;;;;;;5017571;28;20297;-66
2022/07/11 07:53:42;;;;;;;0.90;0.60;;;17.00;99.90;;;;;;5014992;28;20205;-66
2022/07/11 07:56:09;;;;;;;0.47;0.40;;;17.30;99.90;;;;;;5026544;28;20209;-66
2022/07/11 07:58:38;;;;;;;0.98;0.75;;;17.50;99.90;;;;;;5009364;28;20198;-66
2022/07/11 08:03:50;;;;;;;0.95;0.77;;;17.30;99.90;;;;;;5022644;28;20213;-65
2022/07/11 08:06:17;;;;;;;1.52;0.70;;;17.30;99.90;;;;;;4998841;28;20228;-65
2022/07/11 08:08:43;;;;;;;0.70;0.70;;;17.30;99.90;;;;;;5011257;28;20240;-65
2022/07/11 08:11:10;;;;;;;0.60;0.60;;;17.30;99.90;;;;;;5023091;28;20217;-65
2022/07/11 08:13:38;;;;;;;1.15;0.80;;;17.60;99.90;;;;;;5013939;28;20209;-65
2022/07/11 08:16:06;;;;;;;1.30;0.50;;;17.50;99.90;;;;;;5004171;28;20221;-65
2022/07/11 08:18:33;;;;;;;1.75;0.40;;;17.40;99.90;;;;;;5028528;28;20197;-65
2022/07/11 08:21:00;;;;;;;1.00;0.60;;;17.20;99.90;;;;;;5017910;28;20698;-65
2022/07/11 08:23:27;;;;;;;0.70;0.60;;;17.00;99.90;;;;;;5003988;28;20216;-65
2022/07/11 08:25:54;;;;;;;2.28;0.50;;;17.20;99.90;;;;;;5027765;28;20228;-65
2022/07/11 08:28:21;;;;;;;0.98;0.70;;;17.10;99.90;;;;;;5001017;28;20817;-66
2022/07/11 08:30:49;;;;;;;0.60;0.60;;;15.50;99.90;;;;;;4986992;28;20300;-66
2022/07/11 08:33:16;;;;;;;2.35;0.80;;;15.20;99.90;;;;;;5016283;28;20271;-66
2022/07/11 08:35:43;;;;;;;0.77;0.77;;;17.20;99.90;;;;;;5012198;28;20216;-66
2022/07/11 08:38:11;;;;;;;0.85;0.85;;;17.70;99.90;;;;;;5014762;28;20206;-66
2022/07/11 08:40:38;;;;;;;0.60;0.60;;;17.70;99.90;;;;;;5019301;28;20233;-66
2022/07/11 08:43:14;;;;;;;0.70;0.52;;;17.90;99.90;;;;;;5014606;28;20213;-66
2022/07/11 08:45:41;;;;;;;1.83;0.80;;;17.90;99.90;;;;;;4992974;28;20217;-66
2022/07/11 08:48:10;;;;;;;0.40;0.40;;;18.00;99.90;;;;;;5015936;28;20209;-66
2022/07/11 08:50:37;;;;;;;0.68;0.60;;;18.00;99.90;;;;;;5010840;28;20213;-67
2022/07/11 08:53:05;;;;;;;0.40;0.40;;;17.70;99.90;;;;;;5025010;28;20198;-66
2022/07/11 08:55:32;;;;;;;0.50;0.50;;;17.40;99.90;;;;;;5015140;28;20202;-66
2022/07/11 08:57:59;;;;;;;0.60;0.60;;;17.60;99.90;;;;;;5016239;28;20214;-66
2022/07/11 09:00:27;;;;;;;2.05;0.50;;;17.60;99.90;;;;;;5002490;28;20234;-66
2022/07/11 09:02:54;;;;;;;0.38;0.38;;;17.50;99.90;;;;;;5003258;28;20224;-66
2022/07/11 09:05:23;;;;;;;3.55;0.70;;;17.50;99.90;;;;;;5014381;28;20212;-65
2022/07/11 09:07:50;;;;;;;0.60;0.60;;;17.40;99.90;;;;;;5014910;28;20229;-66
2022/07/11 09:10:19;;;;;;;0.60;0.60;;;17.50;99.90;;;;;;5016515;28;20202;-66
2022/07/11 09:13:04;;;;;;;2.53;0.80;;;17.70;99.90;;;;;;5018822;28;20225;-66
2022/07/11 09:15:36;;;;;;;0.43;0.43;;;17.60;99.90;;;;;;5000574;28;20213;-66
2022/07/11 09:18:03;;;;;;;0.60;0.60;;;17.60;99.90;;;;;;5003018;28;20210;-66
2022/07/11 09:26:25;;;;;;;0.50;0.50;;;17.70;99.90;;;;;;5023574;28;20209;-66
2022/07/11 09:29:06;;;;;;;1.27;0.70;;;17.60;99.90;;;;;;5018623;28;20197;-66
2022/07/11 09:31:34;;;;;;;0.60;0.60;;;;;;;;;;4989146;28;20204;-67
2022/07/11 09:34:08;;;;;;;0.82;0.60;;;17.40;99.90;;;;;;5002896;28;20225;-67
2022/07/11 09:36:37;;;;;;;1.33;0.63;;;;;;;;;;5002681;28;20616;-67
2022/07/11 09:39:06;;;;;;;0.40;0.40;;;17.70;99.90;;;;;;5024027;28;20672;-66
2022/07/11 09:41:34;;;;;;;0.55;0.55;;;17.60;99.90;;;;;;5018948;28;20198;-66
2022/07/11 09:44:15;;;;;;;1.88;0.80;;;18.20;99.90;;;;;;5025837;28;20202;-66
2022/07/11 09:46:45;;;;;;;0.60;0.60;;;18.30;99.90;;;;;;4999888;28;20225;-66
2022/07/11 09:49:12;;;;;;;0.60;0.55;;;18.20;99.90;;;;;;4992571;28;20334;-66
2022/07/11 09:51:41;;;;;;;0.80;0.60;;;18.20;99.90;;;;;;5008550;28;20233;-66
2022/07/11 09:54:09;;;;;;;0.60;0.60;;;17.80;99.90;;;;;;5011348;28;20202;-66
2022/07/11 09:56:40;;;;;;;0.82;0.68;;;18.10;99.90;;;;;;5010748;28;20198;-66
2022/07/11 09:59:09;;;;;;;1.15;0.77;;;17.90;99.90;;;;;;5021007;28;20256;-66
2022/07/11 10:01:35;;;;;;;1.08;0.50;;;17.90;99.90;;;;;;4999694;28;20208;-66
2022/07/11 10:04:03;;;;;;;1.15;0.60;;;17.70;99.90;;;;;;4998234;28;20225;-66
2022/07/11 10:06:30;;;;;;;0.63;0.50;;;17.80;99.90;;;;;;5013972;28;20712;-65
2022/07/11 10:08:58;;;;;;;0.52;0.52;;;17.60;99.90;;;;;;5018491;28;20582;-66
2022/07/11 10:11:25;;;;;;;0.50;0.50;;;17.60;99.90;;;;;;5015662;28;20940;-66
2022/07/11 10:13:52;;;;;;;1.85;0.60;;;17.30;99.90;;;;;;5018176;28;20201;-67
2022/07/11 10:16:41;;;;;;;0.85;0.73;;;17.40;99.90;;;;;;5014564;28;20254;-66
2022/07/11 10:19:17;;;;;;;0.70;0.70;;;17.50;99.90;;;;;;4989706;28;20214;-66
2022/07/11 10:21:49;;;;;;;0.70;0.70;;;17.80;99.90;;;;;;5016756;28;20593;-66
2022/07/11 10:24:28;;;;;;;1.40;0.82;;;17.80;99.90;;;;;;5011919;28;20201;-66
2022/07/11 10:27:03;;;;;;;0.70;0.60;;;18.00;99.90;;;;;;5018277;28;20198;-66
2022/07/11 10:29:35;;;;;;;0.50;0.50;;;17.90;99.90;;;;;;5022754;28;20202;-66
2022/07/11 10:32:10;;;;;;;1.00;0.63;;;18.30;99.90;;;;;;5008553;28;20229;-67
2022/07/11 10:34:37;;;;;;;0.50;0.50;;;;;;;;;;5002228;28;20228;-66
2022/07/11 10:37:05;;;;;;;1.52;0.80;;;18.30;99.90;;;;;;5023903;28;20660;-66
2022/07/11 10:39:35;;;;;;;0.65;0.50;;;18.10;99.90;;;;;;5017569;28;21120;-65
2022/07/11 10:42:04;;;;;;;1.45;0.50;;;18.00;99.90;;;;;;5016161;28;20697;-66
2022/07/11 10:44:49;;;;;;;0.30;0.30;;;17.90;99.90;;;;;;5027673;28;20216;-66
2022/07/11 10:47:36;;;;;;;0.50;0.50;;;17.80;99.90;;;;;;5022422;28;20193;-66
2022/07/11 10:50:11;;;;;;;0.77;0.70;;;17.80;99.90;;;;;;5003325;28;20320;-65
2022/07/11 10:52:40;;;;;;;1.67;0.75;;;17.80;99.90;;;;;;5029396;28;20217;-65
2022/07/11 10:55:31;;;;;;;1.05;0.68;;;17.60;99.90;;;;;;5017390;28;20208;-66
2022/07/11 10:58:07;;;;;;;0.93;0.68;;;17.90;99.90;;;;;;5017847;28;20206;-66
2022/07/11 11:00:34;;;;;;;1.27;0.80;;;18.00;99.90;;;;;;5026975;28;20225;-66
2022/07/11 11:03:06;;;;;;;1.02;0.98;;;17.90;99.90;;;;;;5009947;28;20197;-66
2022/07/11 11:05:47;;;;;;;2.95;1.00;;;18.20;99.90;;;;;;5018567;28;20216;-65
2022/07/11 11:08:43;;;;;;;1.85;0.60;;;18.10;99.90;;;;;;5023255;28;20404;-66
2022/07/11 11:11:37;;;;;;;0.63;0.63;;;18.10;99.90;;;;;;5012230;28;20621;-65
2022/07/11 11:14:28;;;;;;;0.68;0.65;;;18.10;99.90;;;;;;5018568;28;20679;-65
2022/07/11 11:16:56;;;;;;;0.70;0.50;;;18.10;99.90;;;;;;5027468;28;20204;-65
2022/07/11 11:19:50;;;;;;;1.88;0.52;;;18.20;99.90;;;;;;5000474;28;20255;-64
2022/07/11 11:22:18;;;;;;;1.67;0.82;;;18.10;99.90;;;;;;5023184;28;20193;-65
2022/07/11 11:24:47;;;;;;;1.30;1.05;;;18.10;99.90;;;;;;4988437;28;21147;-65
2022/07/11 11:27:21;;;;;;;2.08;0.85;;;18.20;99.90;;;;;;4998800;28;20226;-65
2022/07/11 11:29:51;;;;;;;0.73;0.70;;;18.30;99.90;;;;;;4992583;22;1155271;-66
2022/07/11 11:32:20;;;;;;;2.78;0.75;;;19.00;99.90;;;;;;5049449;28;20406;-66
2022/07/11 11:34:47;;;;;;;0.98;0.60;;;15.70;99.90;;;;;;5024187;28;20295;-66
2022/07/11 11:37:16;;;;;;;0.95;0.63;;;18.50;99.90;;;;;;5047440;28;20201;-66
2022/07/11 11:39:44;;;;;;;0.88;0.80;;;18.50;99.90;;;;;;5047708;28;20211;-66
2022/07/11 11:42:17;;;;;;;1.65;0.88;;;18.50;99.90;;;;;;5039275;28;20197;-65
2022/07/11 11:44:58;;;;;;;0.70;0.70;;;18.50;99.90;;;;;;5037611;28;20201;-65
2022/07/11 11:47:26;;;;;;;1.10;0.85;;;18.40;99.90;;;;;;5032612;28;20216;-66
2022/07/11 11:49:53;;;;;;;0.60;0.60;;;18.50;99.90;;;;;;5046185;28;20205;-66
2022/07/11 11:52:20;;;;;;;1.30;0.80;;;18.50;99.90;;;;;;5022355;28;20213;-65
2022/07/11 11:54:55;;;;;;;0.47;0.47;;;18.70;99.90;;;;;;5045531;28;20557;-66
2022/07/11 11:57:25;;;;;;;0.60;0.60;;;18.70;99.90;;;;;;5035347;28;20196;-66
2022/07/11 11:59:51;;;;;;;0.68;0.68;;;18.80;99.90;;;;;;5034189;28;20577;-65
2022/07/11 12:02:23;;;;;;;0.60;0.52;;;18.60;99.90;;;;;;5012015;28;20201;-65
2022/07/11 12:04:50;;;;;;;0.38;0.38;;;19.00;99.90;;;;;;5042060;28;20208;-66
2022/07/11 12:07:23;;;;;;;0.70;0.70;;;18.40;99.90;;;;;;5008201;28;20213;-66
2022/07/11 12:09:55;;;;;;;2.50;0.70;;;18.40;99.90;;;;;;5028781;28;20306;-66
2022/07/11 12:15:25;;;;;;;0.85;0.75;;;18.40;99.90;;;;;;5032143;28;24138;-65
2022/07/11 12:17:53;;;;;;;1.38;0.70;;;18.30;99.90;;;;;;5045425;28;20783;-65
2022/07/11 12:20:38;;;;;;;1.33;0.70;;;18.30;99.90;;;;;;5044116;28;20725;-65
2022/07/11 12:23:06;;;;;;;0.60;0.60;;;18.20;99.90;;;;;;5013617;28;20197;-65
2022/07/11 12:25:33;;;;;;;1.42;0.60;;;18.20;99.90;;;;;;5047216;28;20201;-65
2022/07/11 12:28:02;;;;;;;1.45;0.80;;;18.40;99.90;;;;;;5018989;28;20209;-66
2022/07/11 12:30:28;;;;;;;3.25;0.82;;;18.40;99.90;;;;;;5036084;28;20235;-65
2022/07/11 12:33:06;;;;;;;1.30;0.90;;;18.20;99.90;;;;;;5044642;28;20213;-65
2022/07/11 12:35:33;;;;;;;2.20;0.80;;;18.30;99.90;;;;;;5044290;28;20221;-66
2022/07/11 12:38:00;;;;;;;3.63;0.90;;;19.30;99.90;;;;;;4991236;28;20210;-65
2022/07/11 12:40:27;;;;;;;2.17;1.00;;;;;;;;;;5021168;28;20221;-65
2022/07/11 12:42:54;;;;;;;3.15;1.00;;;;;;;;;;5022862;28;20221;-65
2022/07/11 12:45:21;;;;;;;1.60;1.15;;;18.10;99.90;;;;;;5031504;28;20223;-65
2022/07/11 12:47:51;;;;;;;2.35;0.90;;;18.20;99.90;;;;;;5022123;28;20216;-65
2022/07/11 12:50:19;;;;;;;1.67;0.85;;;18.40;99.90;;;;;;5039135;28;20552;-65
2022/07/11 12:52:48;;;;;;;1.10;1.00;;;18.50;99.90;;;;;;5005951;28;20220;-65
2022/07/11 12:55:23;;;;;;;0.90;0.90;;;19.00;99.90;;;;;;5026167;28;20220;-64
2022/07/11 12:58:07;;;;;;;0.82;0.82;;;18.40;99.90;;;;;;5022949;28;20692;-66
2022/07/11 13:00:37;;;;;;;2.05;0.82;;;18.40;99.90;;;;;;5029247;28;20235;-65
2022/07/11 13:03:04;;;;;;;1.23;1.00;;;18.50;99.90;;;;;;5026316;28;20906;-65
2022/07/11 13:05:46;;;;;;;0.85;0.85;;;18.40;99.90;;;;;;5044725;28;20273;-65
2022/07/11 13:11:07;;;;;;;0.80;0.80;;;18.30;99.90;;;;;;5033478;28;20933;-64
2022/07/11 13:13:34;;;;;;;1.63;1.40;;;18.40;99.90;;;;;;5046185;28;20217;-65
2022/07/11 13:16:04;;;;;;;1.15;1.05;;;18.40;99.90;;;;;;5021737;28;20223;-65